createdAt,value
2019-01-19T00:00:27.144Z,99.99
2019-01-19T00:01:36.703Z,99.99
2019-01-19T00:02:46.513Z,99.99
2019-01-19T00:03:56.577Z,99.99
2019-01-19T00:05:12.960Z,99.99
2019-01-19T00:06:23.067Z,99.99
2019-01-19T00:07:33.130Z,99.99
2019-01-19T00:08:43.201Z,99.99
2019-01-19T00:09:53.334Z,99.99
2019-01-19T00:11:03.626Z,99.99
2019-01-19T00:12:14.038Z,99.99
2019-01-19T00:13:23.827Z,99.99
2019-01-19T00:14:33.895Z,99.99
2019-01-19T00:15:43.980Z,99.95
2019-01-19T00:16:54.100Z,99.99
2019-01-19T00:18:04.253Z,99.99
2019-01-19T00:19:14.295Z,99.99
2019-01-19T00:20:24.094Z,99.99
2019-01-19T00:21:34.158Z,99.99
2019-01-19T00:22:44.223Z,99.99
2019-01-19T00:23:54.035Z,99.99
2019-01-19T00:25:04.115Z,99.99
2019-01-19T00:26:14.285Z,99.99
2019-01-19T00:27:24.359Z,99.99
2019-01-19T00:28:33.949Z,99.99
2019-01-19T00:29:44.030Z,99.99
2019-01-19T00:30:54.340Z,99.85
2019-01-19T00:32:04.465Z,99.57
2019-01-19T00:33:14.543Z,99.38
2019-01-19T00:34:24.668Z,99.76
2019-01-19T00:35:41.705Z,99.66
2019-01-19T00:36:51.825Z,99.76
2019-01-19T00:38:01.896Z,99.76
2019-01-19T00:39:11.965Z,99.76
2019-01-19T00:40:22.104Z,99.76
2019-01-19T00:41:32.605Z,99.85
2019-01-19T00:42:42.647Z,99.99
2019-01-19T00:43:52.745Z,99.99
2019-01-19T00:45:02.591Z,99.99
2019-01-19T00:46:12.647Z,99.99
2019-01-19T00:47:22.496Z,99.99
2019-01-19T00:48:32.563Z,99.99
2019-01-19T00:49:42.613Z,99.99
2019-01-19T00:50:53.128Z,99.99
2019-01-19T00:52:03.506Z,99.99
2019-01-19T00:53:13.544Z,99.99
2019-01-19T00:54:23.609Z,99.99
2019-01-19T00:55:33.394Z,99.99
2019-01-19T00:56:43.499Z,99.99
2019-01-19T00:57:53.310Z,99.99
2019-01-19T00:59:06.650Z,99.99
2019-01-19T01:00:16.521Z,99.99
2019-01-19T01:01:26.781Z,99.99
2019-01-19T01:02:36.850Z,99.99
2019-01-19T01:03:46.926Z,99.99
2019-01-19T01:04:56.995Z,99.99
2019-01-19T01:06:07.350Z,99.99
2019-01-19T01:07:17.412Z,99.99
2019-01-19T01:08:27.524Z,99.99
2019-01-19T01:09:37.391Z,99.99
2019-01-19T01:10:47.465Z,99.99
2019-01-19T01:11:57.546Z,99.99
2019-01-19T01:13:07.605Z,99.99
2019-01-19T01:14:17.898Z,99.99
2019-01-19T01:15:27.970Z,99.52
2019-01-19T01:16:38.047Z,99.61
2019-01-19T01:17:48.102Z,99.42
2019-01-19T01:18:58.157Z,99.61
2019-01-19T01:20:08.214Z,99.99
2019-01-19T01:21:18.606Z,99.52
2019-01-19T01:22:28.675Z,99.71
2019-01-19T01:23:38.740Z,99.89
2019-01-19T01:24:48.783Z,99.8
2019-01-19T01:25:58.826Z,99.52
2019-01-19T01:27:08.622Z,99.71
2019-01-19T01:28:18.725Z,99.71
2019-01-19T01:29:28.775Z,99.61
2019-01-19T01:30:38.838Z,99.99
2019-01-19T01:31:48.951Z,99.99
2019-01-19T01:32:59.102Z,99.99
2019-01-19T01:34:09.178Z,99.61
2019-01-19T01:35:19.233Z,99.71
2019-01-19T01:36:35.652Z,99.61
2019-01-19T01:37:45.693Z,99.8
2019-01-19T01:38:55.946Z,99.89
2019-01-19T01:40:06.774Z,99.71
2019-01-19T01:41:16.585Z,99.61
2019-01-19T01:42:26.660Z,99.71
2019-01-19T01:43:36.710Z,99.52
2019-01-19T01:44:46.768Z,99.71
2019-01-19T01:45:57.053Z,99.8
2019-01-19T01:47:08.013Z,99.8
2019-01-19T01:48:17.818Z,99.71
2019-01-19T01:49:27.936Z,99.42
2019-01-19T01:50:37.990Z,99.42
2019-01-19T01:51:48.034Z,99.33
2019-01-19T01:52:58.146Z,99.23
2019-01-19T01:54:08.218Z,99.33
2019-01-19T01:55:18.029Z,99.8
2019-01-19T01:56:28.119Z,99.99
2019-01-19T01:57:38.212Z,99.99
2019-01-19T01:58:48.271Z,99.99
2019-01-19T01:59:58.055Z,99.8
2019-01-19T02:01:11.157Z,99.61
2019-01-19T02:02:21.221Z,99.42
2019-01-19T02:03:31.526Z,99.42
2019-01-19T02:04:41.611Z,99.52
2019-01-19T02:05:51.677Z,99.33
2019-01-19T02:07:01.779Z,99.8
2019-01-19T02:08:11.595Z,99.99
2019-01-19T02:09:21.641Z,99.71
2019-01-19T02:10:31.928Z,99.71
2019-01-19T02:11:42.091Z,99.61
2019-01-19T02:12:52.174Z,99.99
2019-01-19T02:14:02.320Z,99.8
2019-01-19T02:15:12.645Z,99.8
2019-01-19T02:16:22.720Z,99.99
2019-01-19T02:17:32.778Z,99.99
2019-01-19T02:18:42.825Z,99.42
2019-01-19T02:19:53.246Z,99.99
2019-01-19T02:21:03.935Z,99.99
2019-01-19T02:22:13.766Z,99.33
2019-01-19T02:23:23.815Z,99.71
2019-01-19T02:24:33.865Z,99.89
2019-01-19T02:25:43.972Z,99.42
2019-01-19T02:26:53.804Z,99.52
2019-01-19T02:28:04.079Z,99.33
2019-01-19T02:29:14.152Z,99.33
2019-01-19T02:30:24.260Z,99.42
2019-01-19T02:31:34.708Z,99.23
2019-01-19T02:32:44.537Z,99.99
2019-01-19T02:33:54.640Z,99.99
2019-01-19T02:35:04.562Z,99.89
2019-01-19T02:36:15.072Z,99.99
2019-01-19T02:37:25.481Z,99.61
2019-01-19T02:38:35.618Z,99.99
2019-01-19T02:39:45.794Z,99.71
2019-01-19T02:40:55.871Z,99.42
2019-01-19T02:42:05.944Z,99.99
2019-01-19T02:43:16.292Z,99.99
2019-01-19T02:44:26.364Z,99.8
2019-01-19T02:45:36.433Z,99.8
2019-01-19T02:46:46.510Z,99.8
2019-01-19T02:47:56.806Z,99.99
2019-01-19T02:49:07.055Z,99.8
2019-01-19T02:50:17.393Z,99.8
2019-01-19T02:51:27.480Z,99.8
2019-01-19T02:52:37.524Z,99.99
2019-01-19T02:53:47.613Z,99.99
2019-01-19T02:54:57.670Z,99.99
2019-01-19T02:56:09.161Z,99.8
2019-01-19T02:57:19.800Z,99.52
2019-01-19T02:58:29.923Z,99.61
2019-01-19T02:59:40.060Z,99.52
2019-01-19T03:00:50.123Z,99.23
2019-01-19T03:02:01.465Z,99.27
2019-01-19T03:03:11.524Z,99.27
2019-01-19T03:35:00.918Z,93.99
2019-01-19T03:36:11.009Z,94.27
2019-01-19T03:37:21.073Z,94.74
2019-01-19T03:38:31.132Z,95.87
2019-01-19T03:39:41.402Z,96.53
2019-01-19T03:40:51.604Z,97
2019-01-19T03:42:01.916Z,97.38
2019-01-19T03:43:11.988Z,98.52
2019-01-19T03:44:22.032Z,98.8
2019-01-19T03:45:32.099Z,98.8
2019-01-19T03:46:42.169Z,99.46
2019-01-19T03:47:52.236Z,99.46
2019-01-19T03:49:02.029Z,99.18
2019-01-19T03:50:11.832Z,99.7
2019-01-19T03:51:22.139Z,99.88
2019-01-19T03:52:31.980Z,99.7
2019-01-19T03:53:42.027Z,99.6
2019-01-19T03:54:52.364Z,99.6
2019-01-19T03:56:02.201Z,99.88
2019-01-19T03:57:11.769Z,99.88
2019-01-19T03:58:22.065Z,99.7
2019-01-19T03:59:32.158Z,99.7
2019-01-19T04:00:42.323Z,99.51
2019-01-19T04:01:52.496Z,99.32
2019-01-19T04:03:02.338Z,99.22
2019-01-19T04:04:12.052Z,99.41
2019-01-19T04:05:22.112Z,99.41
2019-01-19T04:06:32.189Z,99.41
2019-01-19T04:07:42.035Z,99.56
2019-01-19T04:08:52.154Z,99.56
2019-01-19T04:10:01.942Z,99.65
2019-01-19T04:11:12.071Z,99.65
2019-01-19T04:12:22.135Z,99.46
2019-01-19T04:13:32.194Z,99.75
2019-01-19T04:14:42.269Z,99.56
2019-01-19T04:15:52.376Z,99.65
2019-01-19T04:17:02.473Z,99.65
2019-01-19T04:18:12.535Z,99.65
2019-01-19T04:19:22.608Z,99.75
2019-01-19T04:20:32.439Z,99.46
2019-01-19T04:21:42.503Z,99.46
2019-01-19T04:22:51.797Z,99.46
2019-01-19T04:24:01.870Z,99.65
2019-01-19T04:25:11.666Z,99.56
2019-01-19T04:26:21.952Z,99.56
2019-01-19T04:27:32.015Z,99.27
2019-01-19T04:28:42.088Z,99.65
2019-01-19T04:29:52.149Z,99.75
2019-01-19T04:31:02.382Z,99.18
2019-01-19T04:32:12.463Z,98.99
2019-01-19T04:33:22.107Z,99.08
2019-01-19T04:34:32.222Z,98.99
2019-01-19T04:35:42.045Z,98.99
2019-01-19T04:36:52.106Z,98.9
2019-01-19T04:38:02.230Z,99.08
2019-01-19T04:39:12.286Z,99.08
2019-01-19T04:40:22.356Z,98.99
2019-01-19T04:41:32.415Z,98.9
2019-01-19T04:42:42.690Z,99.18
2019-01-19T04:43:52.776Z,99.18
2019-01-19T04:45:02.991Z,98.99
2019-01-19T04:46:13.031Z,99.08
2019-01-19T04:47:23.096Z,99.18
2019-01-19T04:48:33.150Z,98.99
2019-01-19T04:49:42.742Z,98.9
2019-01-19T04:50:52.803Z,99.08
2019-01-19T04:52:04.157Z,99.18
2019-01-19T04:53:14.227Z,99.56
2019-01-19T04:54:24.049Z,98.9
2019-01-19T04:55:34.105Z,99.75
2019-01-19T04:56:44.157Z,99.75
2019-01-19T04:57:54.212Z,99.18
2019-01-19T04:59:04.263Z,99.18
2019-01-19T05:00:14.318Z,98.99
2019-01-19T05:01:26.000Z,99.08
2019-01-19T05:02:36.064Z,99.18
2019-01-19T05:03:45.880Z,99.08
2019-01-19T05:04:55.950Z,98.99
2019-01-19T05:06:14.480Z,98.9
2019-01-19T05:07:33.501Z,98.99
2019-01-19T05:08:43.565Z,98.99
2019-01-19T05:09:53.651Z,98.9
2019-01-19T05:11:05.303Z,98.8
2019-01-19T05:12:15.115Z,99.08
2019-01-19T05:13:24.956Z,99.27
2019-01-19T05:14:34.760Z,99.18
2019-01-19T05:15:44.880Z,98.9
2019-01-19T05:16:54.692Z,98.99
2019-01-19T05:18:05.887Z,98.99
2019-01-19T05:19:15.235Z,98.99
2019-01-19T05:20:24.786Z,99.27
2019-01-19T05:21:34.578Z,99.27
2019-01-19T05:22:44.627Z,99.08
2019-01-19T05:23:54.703Z,98.99
2019-01-19T05:25:04.815Z,98.99
2019-01-19T05:26:14.896Z,98.99
2019-01-19T05:27:24.949Z,99.18
2019-01-19T05:28:35.243Z,99.08
2019-01-19T05:29:45.315Z,99.46
2019-01-19T05:30:55.372Z,99.08
2019-01-19T05:32:07.172Z,98.99
2019-01-19T05:33:17.004Z,98.99
2019-01-19T05:34:27.055Z,98.9
2019-01-19T05:35:37.120Z,98.9
2019-01-19T05:36:47.205Z,99.18
2019-01-19T05:37:57.508Z,98.99
2019-01-19T05:39:09.735Z,98.99
2019-01-19T05:40:20.059Z,98.9
2019-01-19T05:41:29.648Z,98.99
2019-01-19T05:42:39.502Z,99.27
2019-01-19T05:43:49.807Z,98.99
2019-01-19T05:44:59.590Z,98.9
2019-01-19T05:46:09.672Z,98.99
2019-01-19T05:47:26.813Z,98.9
2019-01-19T05:48:36.974Z,98.9
2019-01-19T05:49:47.292Z,99.27
2019-01-19T05:50:57.128Z,98.9
2019-01-19T05:52:06.936Z,99.08
2019-01-19T05:53:17.010Z,99.18
2019-01-19T05:54:26.875Z,98.61
2019-01-19T05:55:36.924Z,99.27
2019-01-19T05:56:46.942Z,98.61
2019-01-19T05:57:56.994Z,98.61
2019-01-19T05:59:07.893Z,98.9
2019-01-19T06:00:18.286Z,99.18
2019-01-19T06:01:28.637Z,99.18
2019-01-19T06:02:38.511Z,99.08
2019-01-19T06:03:48.594Z,99.18
2019-01-19T06:04:58.169Z,99.27
2019-01-19T06:06:10.134Z,99.08
2019-01-19T06:07:19.937Z,99.18
2019-01-19T06:08:30.034Z,99.18
2019-01-19T06:09:40.367Z,99.08
2019-01-19T06:10:50.169Z,98.52
2019-01-19T06:11:59.974Z,98.43
2019-01-19T06:13:10.016Z,98.8
2019-01-19T06:14:19.822Z,98.8
2019-01-19T06:15:29.870Z,98.8
2019-01-19T06:16:39.988Z,98.8
2019-01-19T06:17:50.078Z,98.43
2019-01-19T06:19:00.401Z,98.52
2019-01-19T06:20:10.485Z,98.52
2019-01-19T06:21:20.278Z,98.8
2019-01-19T06:22:31.245Z,99.18
2019-01-19T06:23:41.445Z,99.08
2019-01-19T06:24:51.529Z,99.18
2019-01-19T06:26:01.593Z,98.9
2019-01-19T06:27:11.634Z,98.71
2019-01-19T06:28:21.738Z,99.18
2019-01-19T06:29:32.091Z,99.08
2019-01-19T06:30:42.662Z,99.27
2019-01-19T06:31:53.057Z,99.08
2019-01-19T06:33:05.187Z,98.9
2019-01-19T06:34:15.248Z,98.8
2019-01-19T06:35:25.310Z,98.8
2019-01-19T06:36:35.404Z,98.52
2019-01-19T06:37:45.482Z,98.52
2019-01-19T06:38:55.565Z,99.27
2019-01-19T06:40:06.329Z,98.71
2019-01-19T06:41:16.157Z,99.08
2019-01-19T06:42:26.208Z,99.18
2019-01-19T06:43:36.367Z,99.27
2019-01-19T06:44:46.672Z,99.18
2019-01-19T06:45:57.013Z,99.08
2019-01-19T06:47:07.076Z,98.61
2019-01-19T06:48:16.928Z,98.8
2019-01-19T06:49:26.721Z,98.9
2019-01-19T06:50:36.829Z,98.8
2019-01-19T06:51:47.220Z,99.08
2019-01-19T06:52:57.081Z,98.9
2019-01-19T06:54:07.397Z,98.9
2019-01-19T06:55:17.462Z,99.08
2019-01-19T06:56:27.535Z,98.9
2019-01-19T06:57:37.348Z,98.8
2019-01-19T06:58:47.212Z,98.61
2019-01-19T06:59:57.285Z,99.08
2019-01-19T07:01:07.702Z,98.99
2019-01-19T07:02:17.515Z,98.71
2019-01-19T07:03:27.592Z,98.99
2019-01-19T07:04:37.754Z,99.18
2019-01-19T07:05:47.810Z,98.61
2019-01-19T07:07:04.992Z,98.52
2019-01-19T07:08:14.845Z,98.52
2019-01-19T07:09:25.700Z,98.38
2019-01-19T07:10:35.783Z,98.33
2019-01-19T07:11:45.897Z,98.1
2019-01-19T07:12:55.964Z,98.1
2019-01-19T07:14:06.727Z,98
2019-01-19T07:15:16.282Z,98
2019-01-19T07:16:26.423Z,98
2019-01-19T07:17:36.519Z,98.1
2019-01-19T07:18:46.591Z,98
2019-01-19T07:19:56.654Z,98.28
2019-01-19T07:21:06.896Z,98.1
2019-01-19T07:22:16.933Z,98.19
2019-01-19T07:23:27.115Z,98.19
2019-01-19T07:24:36.910Z,98.28
2019-01-19T07:25:48.019Z,98.28
2019-01-19T07:26:58.389Z,98.47
2019-01-19T07:28:08.620Z,98.28
2019-01-19T07:29:18.409Z,98.33
2019-01-19T07:30:28.519Z,98.33
2019-01-19T07:31:38.575Z,98.33
2019-01-19T07:32:48.659Z,98.33
2019-01-19T07:33:59.009Z,98.24
2019-01-19T07:35:09.129Z,98.14
2019-01-19T07:36:19.186Z,98.33
2019-01-19T07:37:29.266Z,98.05
2019-01-19T07:38:39.329Z,98.14
2019-01-19T07:39:49.391Z,97.96
2019-01-19T07:40:59.197Z,97.96
2019-01-19T07:42:09.012Z,98.14
2019-01-19T07:43:19.070Z,98.24
2019-01-19T07:44:29.151Z,98.05
2019-01-19T07:45:39.245Z,98.33
2019-01-19T07:46:55.787Z,97.96
2019-01-19T07:48:07.062Z,97.86
2019-01-19T07:49:16.885Z,98.24
2019-01-19T07:50:26.997Z,97.86
2019-01-19T07:51:37.062Z,98.14
2019-01-19T07:52:47.363Z,98.24
2019-01-19T07:53:57.183Z,98.33
2019-01-19T07:55:07.259Z,98.14
2019-01-19T07:56:17.348Z,98.29
2019-01-19T07:57:33.792Z,98.39
2019-01-19T07:58:44.146Z,98.67
2019-01-19T07:59:54.218Z,98.48
2019-01-19T08:01:04.467Z,98.39
2019-01-19T08:02:14.674Z,97.63
2019-01-19T08:03:24.716Z,98.1
2019-01-19T08:04:34.537Z,98.01
2019-01-19T08:05:44.823Z,97.91
2019-01-19T08:06:54.886Z,97.82
2019-01-19T08:08:06.112Z,97.72
2019-01-19T08:09:16.173Z,98.1
2019-01-19T08:10:26.245Z,98.01
2019-01-19T08:11:36.315Z,98.39
2019-01-19T08:12:46.366Z,98.67
2019-01-19T08:13:56.262Z,98.29
2019-01-19T08:15:06.319Z,98.29
2019-01-19T08:16:16.382Z,98.29
2019-01-19T08:17:26.639Z,98.1
2019-01-19T08:18:36.706Z,98.2
2019-01-19T08:19:46.774Z,98.1
2019-01-19T08:20:56.881Z,97.91
2019-01-19T08:22:06.999Z,98.2
2019-01-19T08:23:17.154Z,98.2
2019-01-19T08:24:27.251Z,98.1
2019-01-19T08:25:37.539Z,98.2
2019-01-19T08:26:47.349Z,98.1
2019-01-19T08:27:57.416Z,98.39
2019-01-19T08:29:09.066Z,98.58
2019-01-19T08:30:19.185Z,97.72
2019-01-19T08:31:29.253Z,98.1
2019-01-19T08:32:39.373Z,97.82
2019-01-19T08:33:49.425Z,97.82
2019-01-19T08:35:01.137Z,97.96
2019-01-19T08:36:11.204Z,97.87
2019-01-19T08:37:27.893Z,98.15
2019-01-19T08:38:37.952Z,97.77
2019-01-19T08:39:48.085Z,97.49
2019-01-19T08:40:58.760Z,97.49
2019-01-19T08:42:08.869Z,97.77
2019-01-19T08:43:18.949Z,97.87
2019-01-19T08:44:29.034Z,98.15
2019-01-19T08:45:38.834Z,97.68
2019-01-19T08:46:48.899Z,97.58
2019-01-19T08:47:58.721Z,97.58
2019-01-19T08:49:08.817Z,97.54
2019-01-19T08:50:19.196Z,96.78
2019-01-19T08:51:29.258Z,96.78
2019-01-19T08:52:39.363Z,96.88
2019-01-19T08:53:49.429Z,96.88
2019-01-19T08:55:00.887Z,96.88
2019-01-19T08:56:10.695Z,97.06
2019-01-19T08:57:20.819Z,96.97
2019-01-19T08:58:30.652Z,97.16
2019-01-19T08:59:40.506Z,96.97
2019-01-19T09:00:50.373Z,97.35
2019-01-19T09:02:00.663Z,97.68
2019-01-19T09:03:10.467Z,97.63
2019-01-19T09:04:20.256Z,97.68
2019-01-19T09:05:30.569Z,97.49
2019-01-19T09:06:40.659Z,97.54
2019-01-19T09:07:50.753Z,97.63
2019-01-19T09:09:01.147Z,97.92
2019-01-19T09:10:11.234Z,98.2
2019-01-19T09:11:21.388Z,97.92
2019-01-19T09:12:31.583Z,98.39
2019-01-19T09:13:41.762Z,98.39
2019-01-19T09:14:51.833Z,98.39
2019-01-19T09:16:01.917Z,98.39
2019-01-19T09:17:11.985Z,98.2
2019-01-19T09:18:21.965Z,98.39
2019-01-19T09:19:32.134Z,98.2
2019-01-19T09:20:42.669Z,98.3
2019-01-19T09:21:52.737Z,98.49
2019-01-19T09:23:02.570Z,98.39
2019-01-19T09:24:12.639Z,98.39
2019-01-19T09:25:22.777Z,98.2
2019-01-19T09:26:32.839Z,98.49
2019-01-19T09:27:43.003Z,98.25
2019-01-19T09:28:53.135Z,98.06
2019-01-19T09:30:04.650Z,97.68
2019-01-19T09:31:14.708Z,97.68
2019-01-19T09:32:24.583Z,97.68
2019-01-19T09:33:34.680Z,97.59
2019-01-19T09:34:44.749Z,97.87
2019-01-19T09:35:54.832Z,97.49
2019-01-19T09:37:05.032Z,97.97
2019-01-19T09:38:14.833Z,97.4
2019-01-19T09:39:25.129Z,97.4
2019-01-19T09:40:35.207Z,97.49
2019-01-19T09:41:45.282Z,97.78
2019-01-19T09:43:10.023Z,97.68
2019-01-19T09:44:21.237Z,97.78
2019-01-19T09:45:32.609Z,97.59
2019-01-19T09:46:42.760Z,97.87
2019-01-19T09:47:52.890Z,97.02
2019-01-19T09:49:02.985Z,97.4
2019-01-19T09:50:13.103Z,97.68
2019-01-19T09:51:23.147Z,97.68
2019-01-19T09:52:32.703Z,97.4
2019-01-19T09:53:42.819Z,97.4
2019-01-19T09:54:52.630Z,97.54
2019-01-19T09:56:02.775Z,97.83
2019-01-19T09:57:12.865Z,97.26
2019-01-19T09:58:22.729Z,97.54
2019-01-19T09:59:32.541Z,97.73
2019-01-19T10:00:48.098Z,97.92
2019-01-19T10:01:58.457Z,97.83
2019-01-19T10:03:08.556Z,97.73
2019-01-19T10:04:19.329Z,97.64
2019-01-19T10:05:29.387Z,97.45
2019-01-19T10:06:39.450Z,97.73
2019-01-19T10:08:03.731Z,97.45
2019-01-19T10:09:13.924Z,97.45
2019-01-19T10:10:24.014Z,97.83
2019-01-19T10:11:33.903Z,97.54
2019-01-19T10:12:44.002Z,97.45
2019-01-19T10:13:54.111Z,98.02
2019-01-19T10:15:03.953Z,98.02
2019-01-19T10:16:14.092Z,97.92
2019-01-19T10:17:24.165Z,97.64
2019-01-19T10:18:34.234Z,97.73
2019-01-19T10:19:44.414Z,97.26
2019-01-19T10:20:56.192Z,97.54
2019-01-19T10:22:06.290Z,97.16
2019-01-19T10:23:16.402Z,97.45
2019-01-19T10:24:26.495Z,97.64
2019-01-19T10:25:36.629Z,97.69
2019-01-19T10:26:46.822Z,97.59
2019-01-19T10:27:56.993Z,97.5
2019-01-19T10:29:07.512Z,97.88
2019-01-19T10:30:17.636Z,97.4
2019-01-19T10:31:27.941Z,96.83
2019-01-19T10:32:38.044Z,97.4
2019-01-19T10:33:48.180Z,97.31
2019-01-19T10:34:58.275Z,97.02
2019-01-19T10:36:08.373Z,97.02
2019-01-19T10:37:18.591Z,97.21
2019-01-19T10:38:28.668Z,97.4
2019-01-19T10:39:38.739Z,97.4
2019-01-19T10:40:48.800Z,97.59
2019-01-19T10:41:58.664Z,97.78
2019-01-19T10:43:08.793Z,97.74
2019-01-19T10:44:18.855Z,97.74
2019-01-19T10:45:28.689Z,98.07
2019-01-19T10:46:38.504Z,97.88
2019-01-19T10:47:49.991Z,97.69
2019-01-19T10:49:00.309Z,97.59
2019-01-19T10:50:10.156Z,97.78
2019-01-19T10:51:19.988Z,98.35
2019-01-19T10:52:30.062Z,98.16
2019-01-19T10:53:40.127Z,97.88
2019-01-19T10:54:50.207Z,98.73
2019-01-19T10:56:00.071Z,98.44
2019-01-19T10:57:09.950Z,98.54
2019-01-19T10:58:20.047Z,98.54
2019-01-19T10:59:29.873Z,98.44
2019-01-19T11:00:39.996Z,98.54
2019-01-19T11:01:50.083Z,98.73
2019-01-19T11:03:00.149Z,98.82
2019-01-19T11:04:10.190Z,98.92
2019-01-19T11:05:20.408Z,98.54
2019-01-19T11:06:30.474Z,98.73
2019-01-19T11:07:40.548Z,98.63
2019-01-19T11:08:50.612Z,98.54
2019-01-19T11:10:03.155Z,98.63
2019-01-19T11:11:13.249Z,98.54
2019-01-19T11:12:23.423Z,98.35
2019-01-19T11:13:33.232Z,98.16
2019-01-19T11:14:43.574Z,98.07
2019-01-19T11:15:53.680Z,98.16
2019-01-19T11:17:03.224Z,98.07
2019-01-19T11:18:13.511Z,98.16
2019-01-19T11:19:23.331Z,98.54
2019-01-19T11:20:33.133Z,98.07
2019-01-19T11:21:43.328Z,98.07
2019-01-19T11:22:53.718Z,98.16
2019-01-19T11:24:04.497Z,98.25
2019-01-19T11:25:14.053Z,98.25
2019-01-19T11:26:24.109Z,98.07
2019-01-19T11:27:33.921Z,98.92
2019-01-19T11:28:45.005Z,98.54
2019-01-19T11:29:55.252Z,98.54
2019-01-19T11:31:05.701Z,98.54
2019-01-19T11:32:15.782Z,98.82
2019-01-19T11:33:25.870Z,97.88
2019-01-19T11:34:35.958Z,97.97
2019-01-19T11:35:46.082Z,98.16
2019-01-19T11:36:55.657Z,98.16
2019-01-19T11:38:11.764Z,98.16
2019-01-19T11:39:27.898Z,98.44
2019-01-19T11:40:38.016Z,97.88
2019-01-19T11:41:47.833Z,98.44
2019-01-19T11:42:58.194Z,98.63
2019-01-19T11:44:10.918Z,98.54
2019-01-19T11:45:20.999Z,98.54
2019-01-19T11:46:31.099Z,98.73
2019-01-19T11:47:41.209Z,98.82
2019-01-19T11:48:51.309Z,98.82
2019-01-19T11:50:01.398Z,97.88
2019-01-19T11:51:11.558Z,97.97
2019-01-19T11:52:21.416Z,98.07
2019-01-19T11:53:31.508Z,98.16
2019-01-19T11:54:41.575Z,98.16
2019-01-19T11:55:51.950Z,98.07
2019-01-19T11:57:03.133Z,98.25
2019-01-19T11:58:13.193Z,98.16
2019-01-19T11:59:23.035Z,98.07
2019-01-19T12:00:33.113Z,98.16
2019-01-19T12:01:43.191Z,98.16
2019-01-19T12:02:53.029Z,98.25
2019-01-19T12:04:04.212Z,98.82
2019-01-19T12:05:14.274Z,98.92
2019-01-19T12:06:24.429Z,98.73
2019-01-19T12:07:34.517Z,98.73
2019-01-19T12:08:44.693Z,98.54
2019-01-19T12:09:54.781Z,98.63
2019-01-19T12:11:04.900Z,98.44
2019-01-19T12:12:14.719Z,98.44
2019-01-19T12:13:24.795Z,98.16
2019-01-19T12:14:34.854Z,98.35
2019-01-19T12:15:44.928Z,98.44
2019-01-19T12:16:55.039Z,98.82
2019-01-19T12:18:05.700Z,99.01
2019-01-19T12:19:16.335Z,98.73
2019-01-19T12:20:26.500Z,98.82
2019-01-19T12:21:36.568Z,98.73
2019-01-19T12:22:46.402Z,98.63
2019-01-19T12:23:55.988Z,98.92
2019-01-19T12:25:06.298Z,98.73
2019-01-19T12:26:16.429Z,98.87
2019-01-19T12:27:26.501Z,98.82
2019-01-19T12:28:36.358Z,98.77
2019-01-19T12:29:46.159Z,98.87
2019-01-19T12:30:55.734Z,98.87
2019-01-19T12:32:06.081Z,98.77
2019-01-19T12:33:16.145Z,99.15
2019-01-19T12:34:26.273Z,98.77
2019-01-19T12:35:36.372Z,98.87
2019-01-19T12:36:46.459Z,98.68
2019-01-19T12:37:56.525Z,98.87
2019-01-19T12:39:06.607Z,98.87
2019-01-19T12:40:16.730Z,98.87
2019-01-19T12:41:26.780Z,98.87
2019-01-19T12:42:36.853Z,98.68
2019-01-19T12:43:46.941Z,98.77
2019-01-19T12:44:57.016Z,98.87
2019-01-19T12:46:07.592Z,99.15
2019-01-19T12:47:17.756Z,98.96
2019-01-19T12:48:27.915Z,98.87
2019-01-19T12:49:37.988Z,98.87
2019-01-19T12:50:48.500Z,98.96
2019-01-19T12:51:58.551Z,99.06
2019-01-19T12:53:08.618Z,99.44
2019-01-19T12:54:18.930Z,99.25
2019-01-19T12:55:29.054Z,99.15
2019-01-19T12:56:38.871Z,99.44
2019-01-19T12:57:49.003Z,99.06
2019-01-19T12:58:59.151Z,99.06
2019-01-19T13:00:10.231Z,99.44
2019-01-19T13:01:20.542Z,99.44
2019-01-19T13:02:30.370Z,99.25
2019-01-19T13:03:40.502Z,99.25
2019-01-19T13:04:50.556Z,99.06
2019-01-19T13:06:00.108Z,99.06
2019-01-19T13:07:11.169Z,98.87
2019-01-19T13:08:21.245Z,98.96
2019-01-19T13:09:37.492Z,98.96
2019-01-19T13:10:47.592Z,98.96
2019-01-19T13:11:57.405Z,98.87
2019-01-19T13:13:07.750Z,98.96
2019-01-19T13:14:17.829Z,98.96
2019-01-19T13:15:27.706Z,98.96
2019-01-19T13:16:37.774Z,98.96
2019-01-19T13:17:47.673Z,99.1
2019-01-19T13:18:57.487Z,99.01
2019-01-19T13:20:07.290Z,99.01
2019-01-19T13:21:17.412Z,99.01
2019-01-19T13:22:27.228Z,98.82
2019-01-19T13:23:37.280Z,99.01
2019-01-19T13:24:52.957Z,99.01
2019-01-19T13:26:03.165Z,99.2
2019-01-19T13:27:13.391Z,99.06
2019-01-19T13:28:23.463Z,99.06
2019-01-19T13:29:33.537Z,98.91
2019-01-19T13:30:43.634Z,99.06
2019-01-19T13:31:53.799Z,99.01
2019-01-19T13:33:05.689Z,99.39
2019-01-19T13:34:15.766Z,99.29
2019-01-19T13:35:25.841Z,99.1
2019-01-19T13:36:35.685Z,99.29
2019-01-19T13:37:45.821Z,99.39
2019-01-19T13:38:55.909Z,99.1
2019-01-19T13:40:06.037Z,99.01
2019-01-19T13:41:15.915Z,99.1
2019-01-19T13:42:26.006Z,98.82
2019-01-19T13:43:36.062Z,99.1
2019-01-19T13:44:45.852Z,99.1
2019-01-19T13:45:55.911Z,99.1
2019-01-19T13:47:05.970Z,99.1
2019-01-19T13:48:15.790Z,98.82
2019-01-19T13:49:25.628Z,98.82
2019-01-19T13:50:35.694Z,99.2
2019-01-19T13:51:45.561Z,99.39
2019-01-19T13:52:58.368Z,99.29
2019-01-19T13:54:09.397Z,99.96
2019-01-19T13:55:19.720Z,99.86
2019-01-19T13:56:29.858Z,99.96
2019-01-19T13:57:39.972Z,99.96
2019-01-19T13:58:49.902Z,99.77
2019-01-19T13:59:59.895Z,99.86
2019-01-19T14:01:09.908Z,99.77
2019-01-19T14:02:19.986Z,99.86
2019-01-19T14:03:29.882Z,99.86
2019-01-19T14:04:39.684Z,99.96
2019-01-19T14:05:49.816Z,99.86
2019-01-19T14:06:59.907Z,99.86
2019-01-19T14:08:09.974Z,99.52
2019-01-19T14:09:20.032Z,99.67
2019-01-19T14:10:30.095Z,99.58
2019-01-19T14:11:40.228Z,99.67
2019-01-19T14:12:50.302Z,99.71
2019-01-19T14:14:00.693Z,99.58
2019-01-19T14:15:10.772Z,99.77
2019-01-19T14:16:20.832Z,99.62
2019-01-19T14:17:30.680Z,99.52
2019-01-19T14:18:40.617Z,99.62
2019-01-19T14:19:50.705Z,99.71
2019-01-19T14:21:00.784Z,99.43
2019-01-19T14:22:10.846Z,99.99
2019-01-19T14:23:20.648Z,99.99
2019-01-19T14:24:30.698Z,99.99
2019-01-19T14:25:40.853Z,99.71
2019-01-19T14:26:50.950Z,99.9
2019-01-19T14:28:00.761Z,99.99
2019-01-19T14:29:10.901Z,99.9
2019-01-19T14:30:20.727Z,99.99
2019-01-19T14:31:30.796Z,99.52
2019-01-19T14:32:40.875Z,99.9
2019-01-19T14:33:50.966Z,99.81
2019-01-19T14:35:01.089Z,99.71
2019-01-19T14:36:11.394Z,99.99
2019-01-19T14:37:21.675Z,99.81
2019-01-19T14:38:31.678Z,99.9
2019-01-19T14:39:41.771Z,99.99
2019-01-19T14:40:51.862Z,99.9
2019-01-19T14:42:01.948Z,99.9
2019-01-19T14:43:12.005Z,99.71
2019-01-19T14:44:22.093Z,99.71
2019-01-19T14:45:32.176Z,99.9
2019-01-19T14:46:42.362Z,99.99
2019-01-19T14:47:52.440Z,99.99
2019-01-19T14:49:02.528Z,99.99
2019-01-19T14:50:12.593Z,99.99
2019-01-19T14:51:22.671Z,99.99
2019-01-19T14:52:32.544Z,99.9
2019-01-19T14:53:42.761Z,99.99
2019-01-19T14:54:52.877Z,99.99
2019-01-19T14:56:04.186Z,99.99
2019-01-19T14:57:14.357Z,99.99
2019-01-19T14:58:24.726Z,99.99
2019-01-19T14:59:34.516Z,99.99
2019-01-19T15:00:44.078Z,99.99
2019-01-19T15:01:54.159Z,99.99
2019-01-19T15:03:05.319Z,99.99
2019-01-19T15:04:15.385Z,99.99
2019-01-19T15:05:25.462Z,99.99
2019-01-19T15:06:35.529Z,99.99
2019-01-19T15:07:45.633Z,99.99
2019-01-19T15:08:55.552Z,99.99
2019-01-19T15:10:11.714Z,99.99
2019-01-19T15:11:21.537Z,99.99
2019-01-19T15:12:31.620Z,99.99
2019-01-19T15:13:41.677Z,99.99
2019-01-19T15:14:51.774Z,99.99
2019-01-19T15:16:01.643Z,99.99
2019-01-19T15:17:11.443Z,99.99
2019-01-19T15:18:21.560Z,99.99
2019-01-19T15:19:31.738Z,99.99
2019-01-19T15:20:41.812Z,99.99
2019-01-19T15:21:51.950Z,99.99
2019-01-19T15:23:02.036Z,99.99
2019-01-19T15:24:12.119Z,99.99
2019-01-19T15:25:21.954Z,99.99
2019-01-19T15:26:31.782Z,99.99
2019-01-19T15:27:41.666Z,99.99
2019-01-19T15:28:51.951Z,99.99
2019-01-19T15:30:02.051Z,99.99
2019-01-19T15:31:11.874Z,99.99
2019-01-19T15:32:21.980Z,99.99
2019-01-19T15:33:32.043Z,99.99
2019-01-19T15:34:42.131Z,99.99
2019-01-19T15:35:52.443Z,99.99
2019-01-19T15:37:03.072Z,99.99
2019-01-19T15:38:12.905Z,99.99
2019-01-19T15:39:23.005Z,99.99
2019-01-19T15:40:32.863Z,99.99